Latest Weather Observations for Applethorpe

IDN60801

Issued at 4:35 pm EST Wednesday 3 September 2014 (issued every 30 minutes, with the page automatically refreshed every 10 minutes)

About weather observations | Map of weather stations | Latest weather observations for NSW | Other Formats
Station Details ID: 041175 Name: APPLETHORPE Lat: -28.62 Lon: 151.95 Height: 871.6 m
Data from the previous 72 hours. | See also: Recent months at Applethorpe
Date/Time
EST
Temp
°C
App
Temp
°C
Dew
Point
Rel
Hum
%
Delta-T
°C
Wind Press
QNH
hPa
Press
MSL
hPa
Rain
since 9 am
mm
Dir
 
Spd
km/h
Gust
km/h
Spd
kts
Gust
kts
03/04:30pm 11.9 5.2 -10.2 20 7.6 SW 19 35 10 19 1012.5 1010.8 0.0
03/04:00pm 12.4 5.2 -9.5 21 7.7 WSW 22 43 12 23 1012.1 1010.5 0.0
03/03:30pm 12.9 5.9 -7.3 24 7.5 SW 22 37 12 20 1012.1 1010.5 0.0
03/03:00pm 12.7 5.4 -6.7 25 7.3 SW 24 35 13 19 1012.0 1010.4 0.0
03/02:30pm 12.6 5.8 -5.6 27 7.0 WSW 22 39 12 21 1011.8 1010.2 0.0
03/02:00pm 12.8 5.8 -3.2 32 6.5 WSW 24 41 13 22 1011.8 1010.2 0.0
03/01:30pm 12.6 4.9 -3.1 33 6.4 SW 28 48 15 26 1011.6 1009.9 0.0
03/01:28pm 12.2 4.5 -3.1 34 6.2 SW 28 48 15 26 1011.5 1009.8 0.0
03/01:00pm 12.2 5.3 -2.7 35 6.1 SW 24 37 13 20 1011.9 1010.3 0.0
03/12:30pm 11.3 4.1 -2.1 39 5.5 WSW 26 41 14 22 1012.4 1010.7 0.0
03/12:00pm 11.1 3.9 -2.1 39 5.4 WSW 26 44 14 24 1012.6 1010.9 0.0
03/11:30am 10.4 3.7 -0.8 46 4.7 WSW 24 39 13 21 1012.9 1011.3 0.0
03/11:00am 10.3 3.6 -1.3 44 4.8 WSW 24 46 13 25 1012.8 1011.2 0.0
03/10:30am 9.3 2.1 -2.2 44 4.6 WSW 26 48 14 26 1013.2 1011.6 0.0
03/10:00am 8.9 2.8 -2.1 46 4.4 WSW 20 33 11 18 1013.5 1011.8 0.0
03/09:30am 8.5 2.5 -1.4 50 4.0 SSW 20 35 11 19 1013.6 1011.9 0.0
03/09:00am 7.9 2.3 -0.3 56 3.4 SW 19 35 10 19 1013.6 1011.9 0.0
03/08:30am 6.1 0.4 0.3 66 2.4 WSW 20 32 11 17 1013.9 1012.3 0.0
03/08:00am 5.4 -0.7 0.5 71 2.0 WSW 22 39 12 21 1013.7 1012.0 0.0
03/07:30am 4.8 -1.3 0.1 71 1.9 WSW 22 37 12 20 1013.1 1011.5 0.0
03/07:00am 3.9 -1.7 0.2 77 1.5 WSW 19 33 10 18 1012.7 1011.1 0.0
03/06:30am 3.3 -2.5 0.0 79 1.3 WSW 20 35 11 19 1012.7 1011.1 0.0
03/06:00am 3.4 -2.4 -0.1 78 1.4 WSW 20 33 11 18 1012.7 1011.1 0.0
03/05:30am 3.1 -2.5 0.1 81 1.2 WSW 19 28 10 15 1012.7 - 0.0
03/05:00am 3.3 -1.5 0.0 79 1.3 WSW 15 26 8 14 1012.4 1010.7 0.0
03/04:30am 3.7 -1.9 0.2 78 1.4 WSW 19 35 10 19 1012.1 - 0.0
03/04:00am 3.7 -1.1 0.2 78 1.4 WSW 15 30 8 16 1012.0 1010.4 0.0
03/03:30am 4.0 -1.2 0.0 75 1.6 WSW 17 35 9 19 1012.0 - 0.0
03/03:00am 4.3 -0.5 0.1 74 1.7 W 15 28 8 15 1012.4 1010.7 0.0
03/02:30am 4.8 -0.4 -0.2 70 2.0 WSW 17 32 9 17 1012.8 - 0.0
03/02:00am 4.8 -0.4 0.1 71 1.9 W 17 26 9 14 1013.0 1011.4 0.0
03/01:30am 5.1 0.3 -0.1 69 2.1 WSW 15 26 8 14 1013.5 - 0.0
03/01:00am 5.5 0.3 -0.2 67 2.3 WSW 17 30 9 16 1013.7 1012.0 0.0
03/12:30am 5.8 0.2 -0.1 66 2.4 WSW 19 30 10 16 1013.8 - 0.0
03/12:00am 5.9 0.3 -0.3 64 2.5 WSW 19 32 10 17 1014.0 1012.4 0.0
 
Date/Time
EST
Temp
°C
App
Temp
°C
Dew
Point
Rel
Hum
%
Delta-T
°C
Wind Press
QNH
hPa
Press
MSL
hPa
Rain
since 9 am
mm
Dir
 
Spd
km/h
Gust
km/h
Spd
kts
Gust
kts
02/11:30pm 6.3 0.6 -0.6 61 2.8 WSW 19 37 10 20 1014.0 - 0.0
02/11:00pm 6.5 0.8 -0.7 60 2.9 WSW 19 28 10 15 1014.1 1012.5 0.0
02/10:30pm 6.9 1.6 -0.8 58 3.1 WSW 17 28 9 15 1014.2 - 0.0
02/10:00pm 7.2 1.8 -1.0 56 3.3 WSW 17 30 9 16 1014.2 1012.6 0.0
02/09:30pm 7.6 2.3 -0.7 55 3.4 WSW 17 33 9 18 1014.4 - 0.0
02/09:00pm 8.0 2.2 -1.4 51 3.8 W 19 33 10 18 1014.3 1012.7 0.0
02/08:30pm 8.6 2.6 -1.5 49 4.1 WSW 20 37 11 20 1014.3 - 0.0
02/08:00pm 8.7 3.3 -1.4 49 4.1 WSW 17 32 9 17 1014.2 1012.6 0.0
02/07:30pm 9.2 3.8 -1.6 47 4.4 W 17 28 9 15 1013.8 - 0.0
02/07:00pm 9.6 4.2 -1.4 46 4.5 W 17 28 9 15 1013.5 1011.8 0.0
02/06:30pm 10.3 4.4 -2.0 42 5.0 WSW 19 33 10 18 1013.1 - 0.0
02/06:00pm 10.9 4.6 -1.0 43 5.0 WSW 22 37 12 20 1012.8 1011.2 0.0
02/05:30pm 11.6 5.9 -0.9 42 5.3 WSW 19 32 10 17 1012.4 - 0.0
02/05:00pm 12.3 6.2 0.5 44 5.2 WSW 22 43 12 23 1011.9 1010.3 0.0
02/04:30pm 13.5 7.7 0.1 40 5.9 W 20 35 11 19 1011.5 - 0.0
02/04:00pm 13.3 7.2 0.7 42 5.6 WSW 22 37 12 20 1011.3 1009.6 0.0
02/03:30pm 14.4 7.8 1.8 42 5.8 WSW 26 46 14 25 1011.2 - 0.0
02/03:00pm 14.8 9.2 3.5 46 5.4 WSW 22 39 12 21 1011.1 1009.4 0.0
02/02:30pm 15.3 10.0 3.1 44 5.8 WSW 20 33 11 18 1010.8 - 0.0
02/02:00pm 16.4 9.4 -0.7 31 7.6 W 26 46 14 25 1010.7 1009.1 0.0
02/01:54pm 16.4 8.9 -1.1 30 7.7 W 28 46 15 25 1010.9 - 0.0
02/01:30pm 16.7 11.0 -0.5 31 7.7 W 19 35 10 19 1011.1 - 0.0
02/01:00pm 16.2 10.4 0.0 33 7.3 W 20 37 11 20 1011.2 1009.5 0.0
02/12:30pm 16.3 11.3 1.4 36 6.9 W 17 32 9 17 1011.6 - 0.0
02/12:00pm 17.4 11.6 2.3 36 7.2 W 22 43 12 23 1012.0 1010.4 0.0
02/11:30am 17.9 13.7 1.9 34 7.6 WNW 13 26 7 14 1012.1 - 0.0
02/11:00am 16.9 14.0 2.7 38 6.8 NW 7 17 4 9 1012.4 1010.7 0.0
02/10:30am 16.6 10.9 0.3 33 7.4 W 20 37 11 20 1013.6 - 0.0
02/10:00am 16.1 11.7 0.4 34 7.1 N 13 26 7 14 1012.9 1011.3 0.0
02/09:30am 15.5 10.8 0.7 36 6.7 NNW 15 30 8 16 1013.5 - 0.0
02/09:00am 15.6 12.2 2.1 40 6.3 NNW 9 22 5 12 1014.0 1012.4 0.0
02/08:30am 14.1 10.8 2.2 44 5.5 NNW 9 20 5 11 1014.2 - 0.0
02/08:00am 12.9 8.9 2.8 50 4.7 N 13 22 7 12 1014.4 1012.8 0.0
02/07:30am 11.4 7.0 2.9 56 3.9 N 15 28 8 15 1014.5 - 0.0
02/07:00am 10.9 6.5 2.8 57 3.7 N 15 26 8 14 1014.4 1012.8 0.0
02/06:30am 11.1 7.0 2.5 55 3.9 N 13 26 7 14 1014.4 - 0.0
02/06:00am 11.4 6.9 2.1 53 4.2 NNW 15 26 8 14 1014.1 1012.5 0.0
02/05:30am 11.5 7.7 1.9 51 4.3 NNW 11 19 6 10 1014.2 - 0.0
02/05:00am 11.8 8.0 1.8 50 4.5 N 11 17 6 9 1014.1 1012.5 0.0
02/04:30am 11.9 8.5 1.9 50 4.5 NNW 9 19 5 10 1014.4 - 0.0
02/04:00am 11.4 8.3 1.5 50 4.4 NNW 7 13 4 7 1014.6 1013.0 0.0
02/03:30am 11.4 7.8 0.6 47 4.7 N 9 15 5 8 1014.8 - 0.0
02/03:00am 11.2 7.9 0.3 47 4.7 N 7 11 4 6 1015.1 1013.5 0.0
02/02:43am 11.7 7.9 -0.5 43 5.2 N 9 15 5 8 1015.3 - 0.0
02/02:30am 6.7 4.5 3.3 79 1.5 N 4 6 2 3 1015.3 - 0.0
02/02:00am 6.7 5.5 4.7 87 0.9 CALM 0 2 0 1 1015.5 1013.9 0.0
02/01:30am 6.3 4.7 4.5 88 0.8 N 2 4 1 2 1016.0 - 0.0
02/01:00am 6.3 4.7 4.3 87 0.9 NE 2 2 1 1 1016.1 1014.5 0.0
02/12:30am 6.1 4.1 4.6 90 0.7 NE 4 4 2 2 1016.2 - 0.0
02/12:00am 5.8 4.6 4.7 93 0.5 CALM 0 0 0 0 1016.6 1015.0 0.0
 
Date/Time
EST
Temp
°C
App
Temp
°C
Dew
Point
Rel
Hum
%
Delta-T
°C
Wind Press
QNH
hPa
Press
MSL
hPa
Rain
since 9 am
mm
Dir
 
Spd
km/h
Gust
km/h
Spd
kts
Gust
kts
01/11:30pm 5.6 4.3 4.3 91 0.6 CALM 0 0 0 0 1017.2 - 0.0
01/11:00pm 6.2 5.0 4.4 88 0.8 CALM 0 0 0 0 1017.3 1015.7 0.0
01/10:30pm 6.8 5.8 5.5 91 0.6 CALM 0 0 0 0 1017.4 - 0.0
01/10:00pm 7.3 6.3 5.4 88 0.9 CALM 0 0 0 0 1017.6 1016.0 0.0
01/09:30pm 7.4 6.3 5.0 85 1.1 CALM 0 0 0 0 1017.8 - 0.0
01/09:00pm 8.0 6.7 4.3 77 1.7 CALM 0 0 0 0 1017.8 1016.3 0.0
01/08:30pm 8.0 6.3 4.1 76 1.8 NW 2 4 1 2 1018.0 - 0.0
01/08:00pm 9.1 7.9 4.6 73 2.1 CALM 0 0 0 0 1017.9 1016.4 0.0
01/07:30pm 9.9 8.0 5.1 72 2.3 W 4 6 2 3 1018.1 - 0.0
01/07:00pm 10.9 8.9 4.6 65 3.0 WNW 4 7 2 4 1018.0 1016.5 0.0
01/06:30pm 12.2 10.4 5.4 63 3.3 WNW 4 4 2 2 1017.6 - 0.0
01/06:00pm 13.5 11.6 5.1 57 4.1 W 4 4 2 2 1017.2 1015.6 0.0
01/05:30pm 15.4 13.2 3.5 45 5.7 W 4 7 2 4 1017.2 - 0.0
01/05:00pm 16.7 13.7 2.0 37 6.9 W 7 11 4 6 1017.2 1015.6 0.0
01/04:30pm 17.1 14.3 2.9 38 6.8 W 7 13 4 7 1017.0 - 0.0
01/04:00pm 17.3 14.5 3.2 39 6.8 W 7 13 4 7 1016.9 1015.4 0.0
01/03:30pm 18.3 14.6 2.2 34 7.7 W 11 19 6 10 1016.7 - 0.0
01/03:00pm 18.6 15.3 2.7 34 7.7 WNW 9 20 5 11 1016.8 1015.3 0.0
01/02:30pm 18.9 15.5 1.6 31 8.2 WNW 9 20 5 11 1016.9 - 0.0
01/02:00pm 18.9 15.6 2.2 33 8.0 WNW 9 20 5 11 1017.4 1015.8 0.0
01/01:30pm 19.1 16.3 2.9 34 7.9 W 7 15 4 8 1017.8 - 0.0
01/01:00pm 17.9 14.2 2.4 35 7.4 W 11 24 6 13 1018.2 1016.7 0.0
01/12:30pm 17.9 14.7 3.3 37 7.1 WNW 9 20 5 11 1018.9 - 0.0
01/12:00pm 17.7 14.9 3.3 38 7.0 W 7 15 4 8 1019.0 1017.5 0.0
01/11:30am 17.4 14.0 1.9 35 7.3 NW 9 24 5 13 1019.4 - 0.0
01/11:00am 16.9 13.9 4.0 42 6.3 WNW 9 17 5 9 1019.9 1018.4 0.0
01/10:30am 16.3 13.2 3.4 42 6.2 NW 9 19 5 10 1020.1 - 0.0
01/10:00am 15.9 13.1 3.4 43 6.0 WNW 7 20 4 11 1020.6 1019.1 0.0
01/09:30am 15.7 13.1 6.0 52 4.9 NW 9 15 5 8 1021.0 - 0.0
01/09:00am 15.0 13.2 8.1 63 3.6 NW 7 15 4 8 1021.0 1020.7 0.2
01/08:30am 13.7 12.1 8.6 71 2.7 NNW 7 11 4 6 1020.7 - 0.2
01/08:00am 12.5 11.0 9.1 80 1.8 N 7 11 4 6 1020.7 1020.5 0.2
01/07:30am 11.3 10.4 9.4 88 1.0 N 4 9 2 5 1020.7 - 0.2
01/07:00am 8.9 8.6 8.5 97 0.2 CALM 0 0 0 0 1020.2 1019.9 0.2
01/06:30am 7.9 7.0 7.7 99 0.1 NE 2 4 1 2 1019.9 - 0.2
01/06:00am 8.8 7.7 8.4 97 0.2 NNE 4 6 2 3 1019.5 1019.3 0.2
01/05:30am 9.5 8.5 8.9 96 0.3 NE 4 6 2 3 1019.4 - 0.2
01/05:00am 9.8 9.3 9.4 97 0.2 NNE 2 4 1 2 1019.3 1019.0 0.2
01/04:30am 10.2 9.8 9.6 96 0.3 NE 2 4 1 2 1019.2 - 0.2
01/04:00am 10.6 9.9 10.0 96 0.3 NE 4 7 2 4 1019.1 1018.8 0.2
01/03:30am 10.6 9.9 10.0 96 0.3 NE 4 7 2 4 1019.2 - 0.2
01/03:00am 10.5 9.8 10.1 97 0.2 NE 4 6 2 3 1019.3 1019.0 0.2
01/02:30am 10.3 9.5 9.7 96 0.3 NNE 4 7 2 4 1019.5 - 0.2
01/02:00am 10.6 9.8 9.8 95 0.4 NNE 4 9 2 5 1019.8 1019.5 0.2
01/01:30am 10.9 10.2 10.1 95 0.4 NE 4 6 2 3 1019.7 - 0.2
01/01:00am 11.0 10.4 10.4 96 0.3 NE 4 7 2 4 1019.8 1019.5 0.2
01/12:30am 11.1 10.5 10.4 95 0.4 ENE 4 6 2 3 1020.0 - 0.2
01/12:00am 11.2 10.6 10.3 94 0.5 NE 4 6 2 3 1020.2 1019.9 0.2
 
Date/Time
EST
Temp
°C
App
Temp
°C
Dew
Point
Rel
Hum
%
Delta-T
°C
Wind Press
QNH
hPa
Press
MSL
hPa
Rain
since 9 am
mm
Dir
 
Spd
km/h
Gust
km/h
Spd
kts
Gust
kts
31/11:30pm 11.0 10.7 10.1 94 0.5 ENE 2 4 1 2 1020.0 - 0.2
31/11:00pm 11.4 10.8 10.3 93 0.6 ENE 4 7 2 4 1020.0 1019.7 0.2
31/10:30pm 11.4 10.8 10.3 93 0.6 ENE 4 7 2 4 1020.1 - 0.2
31/10:00pm 11.7 11.0 10.0 89 0.9 ENE 4 7 2 4 1020.2 1019.9 0.2
31/09:30pm 12.5 11.2 9.3 81 1.7 ENE 6 9 3 5 1020.2 - 0.2
31/09:00pm 12.7 11.3 8.9 78 2.0 ENE 6 9 3 5 1019.9 1019.6 0.2
31/08:30pm 13.4 12.3 8.6 73 2.5 E 4 9 2 5 1020.0 - 0.2
31/08:00pm 13.9 13.7 9.0 72 2.6 CALM 0 0 0 0 1019.9 1019.6 0.2
31/07:30pm 14.4 13.7 8.7 68 3.0 ENE 2 6 1 3 1019.8 - 0.2
31/07:00pm 14.3 13.0 7.7 64 3.4 E 4 7 2 4 1019.3 1019.0 0.2
31/06:30pm 14.9 13.8 6.9 58 4.1 WSW 2 6 1 3 1018.8 - 0.2
31/06:00pm 15.5 14.4 6.7 55 4.5 WSW 2 4 1 2 1018.6 1018.3 0.2
31/05:30pm 16.2 14.2 6.4 52 5.0 WSW 6 9 3 5 1018.2 - 0.2
31/05:00pm 17.5 14.7 5.2 44 6.2 WSW 9 15 5 8 1018.1 1017.8 0.2

Other Formats:

Comma delimited format used in spreadsheet applications
http://www.bom.gov.au/fwo/IDN60801/IDN60801.94553.axf

JavaScript Object Notation format (JSON) in row-major order
http://www.bom.gov.au/fwo/IDN60801/IDN60801.94553.json